Time;durP1;ratioP1;P1;durP2;ratioP2;P2;SDS_P1;SDS_P2;PMS_P1;PMS_P2;Temp;Humidity;BMP_temperature;BMP_pressure;BME280_temperature;BME280_humidity;BME280_pressure;Samples;Min_cycle;Max_cycle;Signal;HPM_P1;HPM_P2
2022/06/12 15:35:10;;;;;;;4.25;2.90;;;;;;;26.29;46.12;148729.06;1790070;78;22647;-57
2022/06/12 15:37:36;;;;;;;4.05;2.75;;;;;;;26.27;46.38;148725.22;1760652;80;21034;-57
2022/06/12 15:40:04;;;;;;;7.35;3.42;;;;;;;26.32;46.95;148736.66;1761390;80;21074;-57
2022/06/12 15:42:31;;;;;;;4.72;2.87;;;;;;;26.33;47.22;148739.17;1759228;80;20980;-57
2022/06/12 15:44:59;;;;;;;4.45;3.25;;;;;;;26.34;47.28;148741.73;1764450;80;21082;-58
2022/06/12 15:47:25;;;;;;;6.42;3.80;;;;;;;26.28;47.06;148726.48;1766528;80;21082;-57
2022/06/12 15:49:52;;;;;;;5.15;3.35;;;;;;;26.17;47.54;148701.12;1767445;80;21007;-61
2022/06/12 15:52:19;;;;;;;4.92;3.40;;;;;;;26.11;48.04;148685.91;1769211;80;21073;-57
2022/06/12 15:54:46;;;;;;;5.03;3.25;;;;;;;26.11;48.14;148685.91;1760103;80;21104;-57
2022/06/12 15:57:13;;;;;;;6.28;3.77;;;;;;;26.03;48.38;148664.33;1757090;80;21070;-58
2022/06/12 15:59:40;;;;;;;9.43;3.98;;;;;;;25.92;48.75;148637.69;1763176;80;21027;-57
2022/06/12 16:02:15;;;;;;;5.47;3.72;;;;;;;25.92;49.14;148638.95;1752847;80;21066;-57
2022/06/12 16:04:44;;;;;;;6.42;4.55;;;;;;;25.98;49.13;148654.20;1766012;80;21140;-57
2022/06/12 16:07:12;;;;;;;7.58;4.45;;;;;;;26.01;48.76;148660.55;1760247;80;21036;-58
2022/06/12 16:09:40;;;;;;;7.08;4.30;;;;;;;25.99;48.90;148656.72;1759973;80;21156;-57
2022/06/12 16:12:10;;;;;;;7.95;4.62;;;;;;;25.95;48.96;148645.30;1765862;80;21722;-57
2022/06/12 16:14:37;;;;;;;6.45;4.20;;;;;;;25.99;48.63;148655.47;1765206;80;21063;-57
2022/06/12 16:17:04;;;;;;;7.45;4.50;;;;;;;26.00;48.19;148657.98;1759121;80;21074;-57
2022/06/12 16:19:32;;;;;;;6.67;4.45;;;;;;;25.96;48.77;148649.12;1765665;80;21012;-57
2022/06/12 16:21:59;;;;;;;9.55;4.53;;;;;;;25.96;49.03;148647.86;1769249;80;21044;-57
2022/06/12 16:24:26;;;;;;;7.10;4.62;;;;;;;25.95;49.19;148646.61;1768846;80;21501;-59
2022/06/12 16:26:53;;;;;;;5.85;4.08;;;;;;;25.92;49.60;148638.95;1763730;80;21564;-59
2022/06/12 16:29:20;;;;;;;7.05;4.08;;;;;;;25.92;49.71;148637.69;1768981;80;20999;-58
2022/06/12 16:31:47;;;;;;;5.58;4.22;;;;;;;25.91;49.85;148635.19;1763348;80;21575;-57
2022/06/12 16:34:14;;;;;;;5.65;4.28;;;;;;;25.89;49.55;148630.09;1753426;80;21068;-57
2022/06/12 16:36:42;;;;;;;6.60;4.08;;;;;;;25.84;49.56;148618.62;1745159;80;21525;-60
2022/06/12 16:39:08;;;;;;;6.90;3.98;;;;;;;25.84;49.79;148618.62;1752766;80;21012;-60
2022/06/12 16:41:49;;;;;;;7.20;4.85;;;;;;;25.81;50.18;148611.03;1749456;80;21095;-60
2022/06/12 16:44:26;;;;;;;6.80;4.62;;;;;;;25.74;50.41;148594.53;1747247;80;21543;-60
2022/06/12 16:46:57;;;;;;;5.67;4.28;;;;;;;25.63;50.63;148566.66;1748778;80;21092;-60
2022/06/12 16:49:28;;;;;;;5.05;3.87;;;;;;;25.52;50.92;148540.03;1744837;80;21059;-60
2022/06/12 16:52:12;;;;;;;6.47;4.53;;;;;;;25.42;51.29;148513.41;1748342;80;21067;-60
2022/06/12 16:54:41;;;;;;;5.72;4.50;;;;;;;25.32;51.71;148490.58;1748214;80;21565;-60
2022/06/12 16:57:11;;;;;;;6.65;4.10;;;;;;;25.22;51.73;148465.22;1746538;80;21059;-60
2022/06/12 16:59:38;;;;;;;6.10;4.60;;;;;;;25.17;52.00;148452.53;1748019;80;21078;-61
2022/06/12 17:02:08;;;;;;;8.45;4.70;;;;;;;25.20;52.04;148460.14;1747090;80;21028;-60
2022/06/12 17:04:39;;;;;;;7.22;4.30;;;;;;;25.24;51.96;148470.30;1759363;80;21059;-59
2022/06/12 17:07:14;;;;;;;7.40;4.50;;;;;;;25.32;51.96;148490.58;1747280;80;21036;-60
2022/06/12 17:09:42;;;;;;;7.37;4.60;;;;;;;25.38;51.87;148503.25;1749558;80;21091;-60
2022/06/12 17:12:13;;;;;;;8.28;4.95;;;;;;;25.40;51.73;148509.59;1749894;80;21536;-60
2022/06/12 17:14:41;;;;;;;6.22;4.55;;;;;;;25.42;51.94;148513.41;1753187;81;21040;-60
2022/06/12 17:17:09;;;;;;;6.55;4.72;;;;;;;25.39;52.04;148505.77;1741645;80;21543;-60
2022/06/12 17:22:24;;;;;;;8.53;4.80;;;;;;;25.36;52.33;148498.17;1751635;80;21521;-60
2022/06/12 17:24:53;;;;;;;5.85;4.20;;;;;;;25.32;52.60;148490.58;1745192;80;21506;-61
2022/06/12 17:27:22;;;;;;;7.05;4.60;;;;;;;25.29;52.68;148481.67;1745102;80;21019;-60
2022/06/12 17:29:52;;;;;;;8.25;5.17;;;;;;;25.26;53.01;148475.33;1751337;80;21058;-60
2022/06/12 17:32:20;;;;;;;6.20;4.80;;;;;;;25.22;53.24;148465.22;1744640;80;20999;-60
2022/06/12 17:34:47;;;;;;;10.30;5.15;;;;;;;25.15;53.46;148447.41;1750427;80;21025;-60
2022/06/12 17:37:15;;;;;;;8.30;5.45;;;;;;;25.10;53.58;148434.73;1750429;80;21663;-60
2022/06/12 17:39:43;;;;;;;8.25;4.90;;;;;;;25.04;53.81;148419.55;1756307;80;21834;-60
2022/06/12 17:42:11;;;;;;;7.00;5.05;;;;;;;24.98;53.89;148404.31;1759168;80;21051;-59
2022/06/12 17:44:39;;;;;;;7.37;5.12;;;;;;;24.93;53.94;148391.64;1755269;80;20989;-60
2022/06/12 17:47:05;;;;;;;9.03;5.80;;;;;;;24.85;54.29;148372.63;1750858;80;21055;-60
2022/06/12 17:49:34;;;;;;;8.08;5.12;;;;;;;24.76;54.87;148351.09;1747614;80;21047;-60
2022/06/12 17:52:01;;;;;;;6.20;5.15;;;;;;;24.68;55.21;148330.83;1721465;80;21047;-60
2022/06/12 17:54:28;;;;;;;7.17;5.08;;;;;;;24.58;55.53;148305.48;1753859;80;21087;-62
2022/06/12 17:56:55;;;;;;;8.53;5.10;;;;;;;24.50;55.95;148286.48;1751674;80;21032;-60
2022/06/12 17:59:23;;;;;;;7.85;5.10;;;;;;;24.40;56.25;148262.34;1753838;80;21063;-59
2022/06/12 18:01:51;;;;;;;6.92;4.70;;;;;;;24.33;56.68;148244.59;1751170;80;21058;-60
2022/06/12 18:04:19;;;;;;;8.18;4.95;;;;;;;24.27;57.07;148229.38;1753785;80;21065;-60
2022/06/12 18:06:47;;;;;;;7.87;5.05;;;;;;;24.20;57.27;148212.94;1761317;80;21086;-60
2022/06/12 18:09:15;;;;;;;9.70;5.83;;;;;;;24.14;57.56;148196.44;1755315;80;21110;-60
2022/06/12 18:11:44;;;;;;;8.70;5.08;;;;;;;24.07;57.86;148180.00;1754356;80;21410;-60
2022/06/12 18:14:12;;;;;;;7.42;5.08;;;;;;;24.02;58.14;148168.59;1757506;80;21079;-60
2022/06/12 18:19:27;;;;;;;7.80;5.53;;;;;;;23.91;58.82;148140.70;1746060;80;21085;-61
2022/06/12 18:21:57;;;;;;;6.97;5.00;;;;;;;23.85;59.27;148124.27;1761765;80;21066;-60
2022/06/12 18:24:29;;;;;;;11.35;5.83;;;;;;;23.79;59.47;148110.34;1780438;81;21020;-60
2022/06/12 18:26:55;;;;;;;;;;;;;;;23.75;59.83;148101.45;1781610;81;21008;-60
2022/06/12 18:29:24;;;;;;;7.08;5.58;;;;;;;23.72;59.87;148092.56;1768371;80;20155;-60
2022/06/12 18:31:52;;;;;;;6.47;5.25;;;;;;;23.67;60.09;148081.16;1749367;80;21094;-60
2022/06/12 18:34:20;;;;;;;7.70;5.87;;;;;;;23.64;60.28;148072.30;1755329;80;21079;-59
2022/06/12 18:36:48;;;;;;;11.90;6.00;;;;;;;23.59;60.45;148062.16;1761384;80;21055;-63
2022/06/12 18:39:15;;;;;;;9.50;6.70;;;;;;;23.56;60.58;148054.56;1752119;80;21016;-60
2022/06/12 18:41:42;;;;;;;8.83;6.50;;;;;;;23.54;60.95;148049.50;1751583;80;21538;-60
2022/06/12 18:44:10;;;;;;;10.63;6.70;;;;;;;23.52;61.19;148043.16;1755402;80;22007;-60
2022/06/12 18:46:37;;;;;;;10.40;6.28;;;;;;;23.47;61.50;148031.75;1755191;80;21548;-60
2022/06/12 18:49:04;;;;;;;10.82;6.37;;;;;;;23.44;61.72;148024.17;1755274;80;21048;-61
2022/06/12 18:51:31;;;;;;;8.05;6.10;;;;;;;23.40;62.07;148015.28;1751036;80;21030;-61
2022/06/12 18:53:59;;;;;;;10.03;6.35;;;;;;;23.38;62.28;148008.94;1754004;80;21051;-60
2022/06/12 18:56:26;;;;;;;11.40;6.25;;;;;;;23.37;62.29;148006.44;1748371;81;21077;-60
2022/06/12 18:58:54;;;;;;;8.90;6.72;;;;;;;23.36;62.64;148003.92;1754457;80;21010;-59
2022/06/12 19:01:23;;;;;;;10.38;6.78;;;;;;;23.34;62.67;147998.84;1746354;80;21670;-60
2022/06/12 19:03:56;;;;;;;8.35;6.30;;;;;;;23.33;62.77;147997.59;1751547;81;21552;-59
2022/06/12 19:06:25;;;;;;;9.35;6.62;;;;;;;23.33;62.79;147997.59;1747391;80;21063;-59
2022/06/12 19:08:52;;;;;;;11.48;6.53;;;;;;;23.33;62.77;147996.28;1737184;81;21132;-60
2022/06/12 19:11:36;;;;;;;7.55;5.85;;;;;;;23.34;62.59;148000.09;1739873;81;21050;-60
2022/06/12 19:13:51;;;;;;;10.38;6.60;;;;;;;23.33;62.51;147997.59;1746195;81;21677;-60
2022/06/12 19:16:20;;;;;;;9.65;6.55;;;;;;;23.32;62.33;147993.77;1741910;81;21079;-60
2022/06/12 19:18:47;;;;;;;8.00;6.08;;;;;;;23.31;62.14;147992.52;1748634;81;21094;-60
2022/06/12 19:21:14;;;;;;;8.45;5.83;;;;;;;23.29;61.43;147986.19;1745520;81;21076;-60
2022/06/12 19:23:44;;;;;;;9.38;5.55;;;;;;;23.29;61.05;147987.44;1743213;81;21023;-60
2022/06/12 19:26:11;;;;;;;8.75;5.15;;;;;;;23.27;60.26;147981.11;1742549;81;21050;-61
2022/06/12 19:28:37;;;;;;;7.70;5.72;;;;;;;23.25;59.87;147976.03;1746763;81;20988;-60
2022/06/12 19:31:06;;;;;;;9.03;5.55;;;;;;;23.21;59.46;147965.94;1749680;81;21007;-60
2022/06/12 19:33:33;;;;;;;7.67;5.90;;;;;;;23.17;59.41;147958.31;1748563;81;21536;-62
2022/06/12 19:36:00;;;;;;;8.23;5.22;;;;;;;23.12;59.36;147944.39;1745211;81;21019;-60
2022/06/12 19:38:27;;;;;;;7.33;5.28;;;;;;;23.08;59.25;147935.55;1742756;81;21696;-60
2022/06/12 19:40:55;;;;;;;7.40;5.62;;;;;;;23.02;59.22;147919.06;1740459;81;21064;-60
2022/06/12 19:43:22;;;;;;;6.95;5.62;;;;;;;22.96;59.50;147906.38;1748252;81;21082;-60
2022/06/12 19:45:50;;;;;;;8.38;6.40;;;;;;;22.90;59.67;147891.19;1745231;81;21055;-60
2022/06/12 19:48:16;;;;;;;6.78;5.58;;;;;;;22.82;60.02;147869.66;1743672;81;21015;-60
2022/06/12 19:50:43;;;;;;;8.50;5.40;;;;;;;22.76;60.00;147857.00;1742001;81;21032;-60
2022/06/12 19:53:10;;;;;;;8.35;5.70;;;;;;;22.72;59.80;147846.91;1747880;81;21058;-61
2022/06/12 19:55:37;;;;;;;7.33;5.58;;;;;;;22.69;59.92;147839.27;1742468;82;21021;-60
2022/06/12 19:58:05;;;;;;;11.83;6.25;;;;;;;22.65;59.73;147829.17;1739513;81;21033;-60
2022/06/12 20:00:33;;;;;;;8.90;5.87;;;;;;;22.61;59.95;147819.03;1724113;81;21618;-61
2022/06/12 20:03:00;;;;;;;9.80;6.03;;;;;;;22.57;59.88;147808.94;1707597;83;21024;-60
2022/06/12 20:08:14;;;;;;;6.70;5.40;;;;;;;22.47;60.39;147783.63;1720785;83;21515;-60
2022/06/12 20:10:43;;;;;;;8.50;5.55;;;;;;;22.41;60.06;147768.41;1708099;83;21077;-60
2022/06/12 20:13:13;;;;;;;8.15;6.03;;;;;;;22.37;60.24;147759.58;1711191;83;21041;-60
2022/06/12 20:15:42;;;;;;;7.83;6.00;;;;;;;22.32;60.71;147748.17;1699405;83;21010;-60
2022/06/12 20:18:15;;;;;;;7.75;5.78;;;;;;;22.28;60.80;147738.03;1707863;82;21499;-60
2022/06/12 20:20:58;;;;;;;8.08;6.03;;;;;;;22.23;60.58;147725.39;1720700;83;21047;-60
2022/06/12 20:23:28;;;;;;;7.70;5.65;;;;;;;22.17;60.69;147710.19;1713749;83;21071;-60
2022/06/12 20:25:56;;;;;;;9.08;5.40;;;;;;;22.11;60.73;147696.27;1714720;83;21027;-60
2022/06/12 20:28:23;;;;;;;7.90;6.05;;;;;;;22.09;60.67;147689.95;1715324;83;21570;-60
2022/06/12 20:30:54;;;;;;;11.33;7.08;;;;;;;22.05;60.71;147679.81;1711934;83;21075;-59
2022/06/12 20:33:23;;;;;;;8.45;6.08;;;;;;;22.02;60.90;147672.22;1710726;83;21049;-60
2022/06/12 20:35:51;;;;;;;8.38;6.05;;;;;;;22.00;60.98;147668.41;1708971;83;21505;-60
2022/06/12 20:38:21;;;;;;;9.13;5.95;;;;;;;21.98;61.03;147662.09;1712423;83;21028;-60
2022/06/12 20:40:56;;;;;;;10.05;6.33;;;;;;;21.93;61.34;147649.44;1713451;83;21010;-60
2022/06/12 20:43:27;;;;;;;7.67;5.58;;;;;;;21.85;61.68;147631.77;1711010;83;21084;-59
2022/06/12 20:45:54;;;;;;;7.80;6.28;;;;;;;21.80;61.98;147619.08;1708317;83;20984;-60
2022/06/12 20:48:21;;;;;;;7.78;6.10;;;;;;;21.76;62.19;147608.98;1704360;83;21088;-60
2022/06/12 20:50:48;;;;;;;8.00;5.45;;;;;;;21.74;62.01;147603.92;1708979;83;22179;-60
2022/06/12 20:53:15;;;;;;;8.23;6.47;;;;;;;21.72;61.54;147598.84;1709530;83;21026;-61
2022/06/12 20:55:42;;;;;;;7.70;5.97;;;;;;;21.72;61.53;147597.59;1716916;83;21012;-59
2022/06/12 20:58:09;;;;;;;8.10;6.72;;;;;;;21.70;61.50;147592.53;1706650;83;21037;-60
2022/06/12 21:00:37;;;;;;;10.18;7.35;;;;;;;21.68;61.65;147588.77;1725403;81;21477;-60
2022/06/12 21:03:04;;;;;;;12.43;8.28;;;;;;;21.66;61.77;147583.69;1760808;81;21044;-60
2022/06/12 21:05:30;;;;;;;14.07;7.97;;;;;;;21.65;61.89;147581.12;1748857;81;21063;-60
2022/06/12 21:07:57;;;;;;;13.68;8.73;;;;;;;21.63;61.89;147577.37;1759998;81;21259;-60
2022/06/12 21:10:25;;;;;;;15.45;9.73;;;;;;;21.62;62.25;147573.56;1745260;81;21056;-60
2022/06/12 21:12:54;;;;;;;11.57;9.45;;;;;;;21.61;62.35;147571.05;1752519;81;21054;-60
2022/06/12 21:15:21;;;;;;;16.23;10.20;;;;;;;21.61;62.33;147571.05;1762123;81;21004;-60
2022/06/12 21:17:50;;;;;;;12.55;9.83;;;;;;;21.60;62.15;147568.48;1758502;81;21042;-60
2022/06/12 21:20:19;;;;;;;15.60;9.78;;;;;;;21.59;62.29;147565.98;1762126;81;21539;-60
2022/06/12 21:22:47;;;;;;;13.08;10.28;;;;;;;21.57;62.16;147560.91;1752015;81;21495;-60
2022/06/12 21:25:14;;;;;;;16.00;10.18;;;;;;;21.53;62.26;147550.81;1759183;81;21056;-59
2022/06/12 21:27:43;;;;;;;13.08;8.70;;;;;;;21.50;62.26;147543.19;1749912;81;21039;-60
2022/06/12 21:30:11;;;;;;;13.28;9.15;;;;;;;21.44;62.41;147529.30;1756488;80;21008;-60
2022/06/12 21:32:40;;;;;;;14.60;9.10;;;;;;;21.39;62.31;147517.91;1746754;81;21036;-59
2022/06/12 21:35:08;;;;;;;13.93;8.68;;;;;;;21.35;62.57;147507.78;1756674;81;21845;-60
2022/06/12 21:37:35;;;;;;;14.18;9.30;;;;;;;21.32;62.62;147498.89;1751245;81;21081;-60
2022/06/12 21:40:04;;;;;;;11.83;8.10;;;;;;;21.27;62.88;147486.25;1743322;81;21539;-60
2022/06/12 21:42:32;;;;;;;12.00;9.23;;;;;;;21.20;62.94;147469.84;1760193;80;20986;-60
2022/06/12 21:44:59;;;;;;;14.68;9.73;;;;;;;21.15;63.12;147458.45;1758184;81;21012;-60
2022/06/12 21:47:26;;;;;;;14.60;9.55;;;;;;;21.11;63.26;147447.06;1750302;81;20971;-59
2022/06/12 21:49:53;;;;;;;17.07;9.68;;;;;;;21.06;63.38;147435.69;1757507;81;21119;-59
2022/06/12 21:55:05;;;;;;;13.65;9.60;;;;;;;20.96;63.75;147410.41;1761770;80;21011;-60
2022/06/12 21:57:32;;;;;;;12.23;8.80;;;;;;;20.89;64.02;147392.70;1750473;81;21027;-60
2022/06/12 21:59:59;;;;;;;15.48;9.28;;;;;;;20.84;64.09;147380.06;1751797;80;21016;-59
2022/06/12 22:02:26;;;;;;;12.13;8.80;;;;;;;20.80;64.22;147371.23;1742314;81;21074;-59
2022/06/12 22:04:53;;;;;;;16.87;9.80;;;;;;;20.76;64.43;147361.09;1738614;81;21019;-59
2022/06/12 22:07:20;;;;;;;18.60;9.40;;;;;;;20.72;64.61;147352.28;1737855;81;21028;-59
2022/06/12 22:09:47;;;;;;;12.40;8.60;;;;;;;20.69;64.65;147343.44;1743838;81;22239;-60
2022/06/12 22:12:16;;;;;;;11.57;8.73;;;;;;;20.64;65.04;147330.81;1744541;81;21070;-58
2022/06/12 22:14:43;;;;;;;12.20;9.25;;;;;;;20.58;65.24;147318.17;1745010;81;21785;-59
2022/06/12 22:17:13;;;;;;;16.23;9.63;;;;;;;20.53;65.60;147304.19;1743708;81;21019;-59
2022/06/12 22:19:41;;;;;;;13.53;9.18;;;;;;;20.48;65.86;147292.84;1743100;81;21013;-59
2022/06/12 22:22:08;;;;;;;15.55;9.75;;;;;;;20.44;66.09;147281.47;1739374;81;21603;-59
2022/06/12 22:24:36;;;;;;;13.50;9.20;;;;;;;20.39;66.50;147270.09;1746704;81;21023;-59
2022/06/12 22:27:05;;;;;;;14.83;9.18;;;;;;;20.35;66.76;147261.27;1748876;81;21066;-62
2022/06/12 22:29:34;;;;;;;12.53;8.40;;;;;;;20.31;67.03;147249.88;1746085;81;21055;-60
2022/06/12 22:32:01;;;;;;;12.40;9.05;;;;;;;20.29;67.29;147244.81;1733783;81;20991;-59
2022/06/12 22:34:29;;;;;;;12.95;8.78;;;;;;;20.26;67.52;147237.25;1738832;81;21031;-59
2022/06/12 22:36:56;;;;;;;14.90;9.50;;;;;;;20.23;67.61;147229.67;1708137;83;21024;-59
2022/06/12 22:39:23;;;;;;;12.43;9.08;;;;;;;20.19;68.09;147219.55;1686014;85;21062;-58
2022/06/12 22:41:50;;;;;;;15.13;8.83;;;;;;;20.14;68.36;147209.42;1685881;83;21555;-58
2022/06/12 22:44:17;;;;;;;12.00;8.70;;;;;;;20.11;68.81;147201.86;1685672;85;21117;-58
2022/06/12 22:46:43;;;;;;;10.85;8.50;;;;;;;20.06;69.14;147189.22;1691678;83;21531;-59
2022/06/12 22:49:10;;;;;;;11.83;8.13;;;;;;;20.03;69.25;147181.66;1719612;83;21038;-59
2022/06/12 22:51:43;;;;;;;13.55;9.05;;;;;;;19.98;69.52;147169.02;1719563;83;21598;-58
2022/06/12 22:54:10;;;;;;;13.48;8.63;;;;;;;19.95;69.81;147161.45;1719752;83;21026;-59
2022/06/12 22:56:37;;;;;;;14.80;9.33;;;;;;;19.89;70.18;147146.27;1719588;83;21049;-58
2022/06/12 22:59:05;;;;;;;12.58;9.00;;;;;;;19.85;70.34;147137.44;1719744;83;21556;-59
2022/06/12 23:01:33;;;;;;;10.80;8.30;;;;;;;19.81;70.65;147126.06;1718919;83;21052;-58
2022/06/12 23:04:00;;;;;;;12.07;8.25;;;;;;;19.78;70.80;147119.75;1701400;83;21550;-59
2022/06/12 23:06:27;;;;;;;10.13;8.25;;;;;;;19.76;70.89;147113.44;1691421;85;21053;-58
2022/06/12 23:08:54;;;;;;;12.20;7.75;;;;;;;19.71;71.12;147103.31;1725559;83;21230;-59
2022/06/12 23:11:20;;;;;;;13.10;8.35;;;;;;;19.68;71.25;147094.50;1725591;83;21186;-59
2022/06/12 23:13:49;;;;;;;12.13;8.20;;;;;;;19.66;71.47;147089.37;1725513;82;21580;-59
2022/06/12 23:16:16;;;;;;;10.35;7.80;;;;;;;19.62;71.58;147080.56;1725582;82;21052;-59
2022/06/12 23:18:44;;;;;;;11.85;7.97;;;;;;;19.60;71.85;147075.50;1725554;82;21057;-59
2022/06/12 23:21:11;;;;;;;12.43;7.60;;;;;;;19.58;72.03;147070.44;1725557;83;21012;-58
2022/06/12 23:23:37;;;;;;;11.03;7.92;;;;;;;19.58;72.12;147069.19;1725583;83;21056;-58
2022/06/12 23:26:10;;;;;;;10.18;8.15;;;;;;;19.55;72.30;147062.88;1725772;82;21094;-59
2022/06/12 23:28:41;;;;;;;12.53;7.58;;;;;;;19.52;72.34;147055.31;1740477;81;21047;-58
2022/06/12 23:31:17;;;;;;;10.40;7.45;;;;;;;19.49;72.58;147047.73;1761753;81;21539;-58
2022/06/12 23:33:45;;;;;;;11.65;7.83;;;;;;;19.45;72.73;147037.63;1760036;81;20995;-59
2022/06/12 23:36:12;;;;;;;11.00;7.67;;;;;;;19.40;72.97;147026.25;1761354;81;21015;-60
2022/06/12 23:38:39;;;;;;;18.90;8.88;;;;;;;19.35;73.09;147012.38;1761350;81;20995;-60
2022/06/12 23:41:06;;;;;;;12.13;7.62;;;;;;;19.30;73.47;147002.25;1761355;81;21023;-60
2022/06/12 23:43:33;;;;;;;14.85;8.50;;;;;;;19.25;73.73;146989.63;1761673;81;21544;-60
2022/06/12 23:46:23;;;;;;;10.85;7.17;;;;;;;19.21;74.07;146979.55;1761609;81;21135;-59
2022/06/12 23:48:58;;;;;;;8.80;7.07;;;;;;;19.17;74.23;146969.44;1733420;81;21067;-57
2022/06/12 23:51:29;;;;;;;10.60;7.42;;;;;;;19.14;74.49;146961.88;1725282;83;21059;-58
2022/06/12 23:53:56;;;;;;;13.70;7.78;;;;;;;19.11;74.69;146954.30;1725429;83;21066;-59
2022/06/12 23:56:30;;;;;;;11.83;7.65;;;;;;;19.06;74.88;146942.94;1725815;83;21052;-59
2022/06/12 23:58:57;;;;;;;10.45;7.30;;;;;;;19.02;75.20;146932.81;1728786;82;21047;-58
